Pixley, California
Current Conditions -  °F | °C
As of 11:15 AM on Thursday 30 Oct 2014 (Local Time) from KPTV Reporting Station
Clear Clear  
Wind Chill: 23°   Ceiling: Unl
Heat Index: 23°   Visibility: 10mi
Dew Point:   Wind: 5mph
Humidity: 36%   Direction: 280°W
Pressure: 29.97"   Gusts: NA
Location:  35.97°N, 119.29°W
Report Text: KPTV 301815Z AUTO 28004KT 10SM CLR 23/07 A2997 RMK AO1
Loading
Personal Weather Stations






























Interactive Weather Map
Tropical Storm Tracking
New forecast layout! Learn more

10-Day Weather Forecast

Advertisements
Track Severe Weather on mobile